COYOTE (LAKE MENDOCINO) (COY)

Elevation: 720' · RUSSIAN R basin · Operator: US Army Corps of Engineers

Provisional data, subject to change.
Query executed Wednesday at 0:09:26   clock

Select a sensor type for a plot of data.
Note: Reservoir Flows are daily averages.

Earlier

Date RES ELE    STORAGE    RES CHG    TOC STO    ABV TOC    OUTFLOW    INFLOW    PPT INC    TEMP MN    TEMP MX    EVP PAN   
 FEET   AF   AF   AF   AF   CFS   CFS   INCHES   DEG F   DEG F   INCHES  
02/05/2015 731.38 58459 63 68410 -9951 27 61 0.04 12 15 0.05
02/06/2015 732.76 60658 2199 68410 -7752 28 1138 3.27 13 16 0.03
02/07/2015 733.97 62609 1951 68410 -5801 27 1015 0.02 11 19 0.08
02/08/2015 734.60 63632 1023 68410 -4778 27 545 0.64 11 16 0.05
02/09/2015 735.78 65562 1930 68410 -2848 28 1004 0.43 7 17 0.06
02/10/2015 736.23 66303 741 68410 -2107 28 405 0.00 3 18 0.08
02/11/2015 736.49 66732 429 68410 -1678 28 248 0.00 3 20 0.08
02/12/2015 736.67 67030 298 68410 -1380 28 182 0.01 5 23 0.09
02/13/2015 736.81 67262 232 68410 -1148 28 150 0.00 6 26 0.10
02/14/2015 736.92 67444 182 68410 -966 28 126 0.00 6 26 0.12
02/15/2015 737.03 67626 182 68410 -784 28 126 0.01 5 28 0.12
02/16/2015 737.11 67759 133 68410 -651 28 101 0.00 5 27 0.12
02/17/2015 737.21 67925 166 68410 -485 28 117 0.00 5 21 0.10
02/18/2015 737.26 68008 83 68410 -402 28 74 0.00 9 23 0.10
02/19/2015 737.31 68092 84 68410 -318 46 94 0.00 6 25 0.11
02/20/2015 737.31 68092 0 68410 -318 74 80 0.00 5 26 0.13
02/21/2015 737.31 68092 0 68410 -- -- -- -- -- -- --
02/22/2015 737.28 68042 -50 68410 -368 87 71 0.00 8 20 0.19
02/23/2015 737.26 68008 -34 68410 -402 92 83 0.00 1 20 0.16
02/24/2015 737.26 68008 0 68410 -402 97 104 0.00 -1 22 0.13
02/25/2015 737.26 68008 -- 68410 -402 103 109 0.00 1 23 0.12
02/26/2015 737.25 67992 -16 68410 -418 106 104 0.00 7 20 0.12
02/27/2015 737.22 67942 -50 68410 -468 110 89 0.00 6 16 0.09
02/28/2015 737.20 67909 -33 68410 -501 110 99 0.00 2 20 0.11
03/01/2015 737.17 67859 -50 68410 -551 112 92 0.00 0 21 0.13
03/02/2015 737.11 67759 -100 68410 -651 -- -- -- -- -- --
03/03/2015 -- -- -- 68410 -- -- -- -- -- -- --
03/04/2015 -- -- -- -- -- -- -- -- -- -- --

Later | Latest

Warning! This data is preliminary and subject to revision.

Show COY Map | Plot COY Data | 1 Month COY Data | Real-Time COY Data | COY Info